createdAt,value
2018-07-31T00:02:05.215Z,60247.49
2018-07-31T00:04:33.507Z,60254.61
2018-07-31T00:07:01.725Z,60233.27
2018-07-31T00:09:29.907Z,60245.46
2018-07-31T00:11:58.103Z,60235.30
2018-07-31T00:14:26.293Z,60234.29
2018-07-31T00:16:54.522Z,60241.40
2018-07-31T00:19:22.707Z,60254.61
2018-07-31T00:21:50.894Z,60237.33
2018-07-31T00:24:19.095Z,60237.33
2018-07-31T00:26:47.287Z,60232.25
2018-07-31T00:29:15.456Z,60237.33
2018-07-31T00:31:43.654Z,60262.74
2018-07-31T00:34:11.855Z,60251.56
2018-07-31T00:36:40.075Z,60245.46
2018-07-31T00:39:09.259Z,60246.48
2018-07-31T00:41:37.473Z,60238.35
2018-07-31T00:44:05.776Z,60258.67
2018-07-31T00:46:33.980Z,60262.74
2018-07-31T00:49:02.206Z,60263.75
2018-07-31T00:51:30.399Z,60242.41
2018-07-31T00:53:58.590Z,60251.56
2018-07-31T00:56:26.823Z,60245.46
2018-07-31T00:58:55.005Z,60256.64
2018-07-31T01:01:23.204Z,60253.59
2018-07-31T01:03:51.387Z,60251.56
2018-07-31T01:06:23.738Z,60253.59
2018-07-31T01:08:51.940Z,60275.95
2018-07-31T01:11:20.120Z,60241.40
2018-07-31T01:13:48.296Z,60273.91
2018-07-31T01:16:16.466Z,60284.07
2018-07-31T01:18:44.661Z,60252.57
2018-07-31T01:21:12.826Z,60248.51
2018-07-31T01:23:41.003Z,60260.71
2018-07-31T01:26:09.183Z,60250.54
2018-07-31T01:28:37.470Z,60270.87
2018-07-31T01:31:05.667Z,60275.95
2018-07-31T01:33:33.839Z,60268.83
2018-07-31T01:36:02.074Z,60278.99
2018-07-31T01:38:30.247Z,60248.51
2018-07-31T01:40:58.474Z,60274.93
2018-07-31T01:43:26.659Z,60272.90
2018-07-31T01:45:54.924Z,60259.69
2018-07-31T01:48:23.055Z,60266.80
2018-07-31T01:50:51.222Z,60283.06
2018-07-31T01:53:19.407Z,60293.22
2018-07-31T01:55:47.586Z,60276.96
2018-07-31T01:58:15.775Z,60257.66
2018-07-31T02:00:43.950Z,60285.09
2018-07-31T02:03:12.128Z,60261.72
2018-07-31T02:05:40.328Z,60267.82
2018-07-31T02:08:08.510Z,60288.14
2018-07-31T02:10:36.702Z,60285.09
2018-07-31T02:13:04.906Z,60270.87
2018-07-31T02:15:33.108Z,60267.82
2018-07-31T02:18:01.290Z,60274.93
2018-07-31T02:20:29.483Z,60255.63
2018-07-31T02:22:57.648Z,60281.03
2018-07-31T02:25:25.824Z,60296.27
2018-07-31T02:27:54.031Z,60285.09
2018-07-31T02:30:23.254Z,60263.75
2018-07-31T02:32:54.028Z,60302.37
2018-07-31T02:35:22.250Z,60257.66
2018-07-31T02:37:50.431Z,60283.06
2018-07-31T02:40:18.608Z,60276.96
2018-07-31T02:42:46.792Z,60291.19
2018-07-31T02:45:15.352Z,60285.09
2018-07-31T02:47:44.358Z,60287.12
2018-07-31T02:50:12.573Z,60286.11
2018-07-31T02:52:40.986Z,60298.30
2018-07-31T02:55:10.299Z,60292.21
2018-07-31T02:57:39.081Z,60299.32
2018-07-31T03:00:08.511Z,60284.07
2018-07-31T03:02:36.692Z,60268.83
2018-07-31T03:05:06.037Z,60287.12
2018-07-31T03:07:34.220Z,60298.30
2018-07-31T03:10:02.415Z,60283.06
2018-07-31T03:12:30.611Z,60297.29
2018-07-31T03:14:58.807Z,60291.19
2018-07-31T03:17:27.044Z,60273.91
2018-07-31T03:19:55.223Z,60297.29
2018-07-31T03:22:23.423Z,60300.34
2018-07-31T03:24:51.620Z,60310.50
2018-07-31T03:27:19.794Z,60292.21
2018-07-31T03:29:47.991Z,60295.25
2018-07-31T03:32:16.163Z,60300.34
2018-07-31T03:34:44.430Z,60305.41
2018-07-31T03:37:12.595Z,60280.01
2018-07-31T03:39:40.788Z,60289.16
2018-07-31T03:42:09.007Z,60304.40
2018-07-31T03:44:37.183Z,60289.16
2018-07-31T03:47:05.411Z,60285.09
2018-07-31T03:49:33.599Z,60291.19
2018-07-31T03:52:01.793Z,60272.90
2018-07-31T03:54:29.979Z,60319.64
2018-07-31T03:56:58.158Z,60301.35
2018-07-31T03:59:26.375Z,60292.21
2018-07-31T04:01:54.558Z,60297.29
2018-07-31T04:04:22.750Z,60306.43
2018-07-31T04:06:50.926Z,60307.45
2018-07-31T04:09:19.110Z,60294.24
2018-07-31T04:11:47.294Z,60294.24
2018-07-31T04:14:15.483Z,60307.45
2018-07-31T04:16:43.694Z,60280.01
2018-07-31T04:19:11.864Z,60297.29
2018-07-31T04:21:40.047Z,60328.79
2018-07-31T04:24:08.235Z,60286.11
2018-07-31T04:26:36.446Z,60303.38
2018-07-31T04:29:04.626Z,60310.50
2018-07-31T04:31:32.833Z,60326.75
2018-07-31T04:34:01.011Z,60299.32
2018-07-31T04:36:29.174Z,60324.72
2018-07-31T04:38:57.543Z,60298.30
2018-07-31T04:41:25.733Z,60316.59
2018-07-31T04:43:53.894Z,60308.46
2018-07-31T04:46:22.062Z,60311.51
2018-07-31T04:48:50.250Z,60296.27
2018-07-31T04:51:18.413Z,60298.30
2018-07-31T04:53:46.688Z,60310.50
2018-07-31T04:56:14.926Z,60302.37
2018-07-31T04:58:43.111Z,60311.51
2018-07-31T05:01:11.299Z,60312.53
2018-07-31T05:03:39.472Z,60296.27
2018-07-31T05:06:07.678Z,60305.41
2018-07-31T05:08:35.871Z,60296.27
2018-07-31T05:11:04.153Z,60288.14
2018-07-31T05:13:32.275Z,60288.14
2018-07-31T05:16:00.446Z,60322.69
2018-07-31T05:18:28.747Z,60304.40
2018-07-31T05:20:56.927Z,60317.61
2018-07-31T05:23:25.189Z,60300.34
2018-07-31T05:25:53.396Z,60286.11
2018-07-31T05:28:21.590Z,60310.50
2018-07-31T05:30:49.759Z,60321.67
2018-07-31T05:33:19.057Z,60291.19
2018-07-31T05:35:47.259Z,60287.12
2018-07-31T05:38:15.504Z,60303.38
2018-07-31T05:40:43.695Z,60311.51
2018-07-31T05:43:11.876Z,60291.19
2018-07-31T05:45:41.708Z,60307.45
2018-07-31T05:48:09.881Z,60298.30
2018-07-31T05:50:38.063Z,60287.12
2018-07-31T05:53:06.316Z,60292.21
2018-07-31T05:55:34.531Z,60282.04
2018-07-31T05:58:02.702Z,60282.04
2018-07-31T06:00:30.880Z,60294.24
2018-07-31T06:02:59.139Z,60299.32
2018-07-31T06:05:27.322Z,60270.87
2018-07-31T06:07:55.518Z,60285.09
2018-07-31T06:10:23.716Z,60294.24
2018-07-31T06:12:51.908Z,60294.24
2018-07-31T06:15:20.433Z,60277.98
2018-07-31T06:17:48.623Z,60278.99
2018-07-31T06:20:17.350Z,60277.98
2018-07-31T06:22:47.734Z,60246.48
2018-07-31T06:25:16.149Z,60267.82
2018-07-31T06:27:44.952Z,60237.33
2018-07-31T06:30:14.451Z,60270.87
2018-07-31T06:32:43.252Z,60258.67
2018-07-31T06:35:11.486Z,60260.71
2018-07-31T06:37:39.787Z,60283.06
2018-07-31T06:40:08.591Z,60254.61
2018-07-31T06:42:36.770Z,60246.48
2018-07-31T06:45:05.256Z,60245.46
2018-07-31T06:47:33.451Z,60251.56
2018-07-31T06:50:01.688Z,60253.59
2018-07-31T06:52:29.914Z,60243.43
2018-07-31T06:54:58.114Z,60230.22
2018-07-31T06:57:26.338Z,60256.64
2018-07-31T06:59:54.559Z,60267.82
2018-07-31T07:02:22.747Z,60251.56
2018-07-31T07:04:50.955Z,60244.45
2018-07-31T07:07:19.145Z,60243.43
2018-07-31T07:09:47.469Z,60227.17
2018-07-31T07:12:15.674Z,60250.54
2018-07-31T07:14:43.883Z,60244.45
2018-07-31T07:17:12.090Z,60246.48
2018-07-31T07:19:40.306Z,60211.93
2018-07-31T07:22:08.528Z,60228.19
2018-07-31T07:24:36.727Z,60239.36
2018-07-31T07:27:04.930Z,60245.46
2018-07-31T07:29:33.118Z,60243.43
2018-07-31T07:32:01.363Z,60230.22
2018-07-31T07:34:29.554Z,60242.41
2018-07-31T07:36:57.882Z,60208.88
2018-07-31T07:39:26.099Z,60221.07
2018-07-31T07:41:54.372Z,60235.30
2018-07-31T07:44:22.584Z,60236.32
2018-07-31T07:46:50.805Z,60212.95
2018-07-31T07:49:18.991Z,60234.29
2018-07-31T07:51:47.352Z,60227.17
2018-07-31T07:54:15.667Z,60220.06
2018-07-31T07:56:43.870Z,60219.04
2018-07-31T07:59:12.134Z,60215.99
2018-07-31T08:01:40.406Z,60202.79
2018-07-31T08:04:08.679Z,60195.67
2018-07-31T08:06:36.932Z,60200.75
2018-07-31T08:09:07.451Z,60210.91
2018-07-31T08:11:36.234Z,60200.75
2018-07-31T08:14:04.671Z,60202.79
2018-07-31T08:16:32.901Z,60197.70
2018-07-31T08:19:01.481Z,60188.56
2018-07-31T08:21:29.750Z,60207.86
2018-07-31T08:24:00.758Z,60183.48
2018-07-31T08:26:29.026Z,60182.46
2018-07-31T08:28:57.371Z,60183.48
2018-07-31T08:31:25.556Z,60180.43
2018-07-31T08:33:53.823Z,60184.49
2018-07-31T08:36:22.083Z,60194.66
2018-07-31T08:38:50.336Z,60174.33
2018-07-31T08:41:18.615Z,60173.32
2018-07-31T08:43:46.922Z,60187.54
2018-07-31T08:46:15.186Z,60165.19
2018-07-31T08:48:43.461Z,60161.12
2018-07-31T08:51:11.767Z,60179.41
2018-07-31T08:53:40.982Z,60166.20
2018-07-31T08:56:10.293Z,60179.41
2018-07-31T08:58:38.498Z,60165.19
2018-07-31T09:01:06.754Z,60157.06
2018-07-31T09:03:34.998Z,60169.25
2018-07-31T09:06:03.289Z,60165.19
2018-07-31T09:08:31.643Z,60170.27
2018-07-31T09:10:59.710Z,60158.07
2018-07-31T09:13:27.936Z,60153.00
2018-07-31T09:15:56.106Z,60161.12
2018-07-31T09:18:24.323Z,60162.14
2018-07-31T09:20:52.726Z,60141.82
2018-07-31T09:23:20.919Z,60144.87
2018-07-31T09:25:50.187Z,60143.85
2018-07-31T09:28:19.126Z,60147.91
2018-07-31T09:30:53.466Z,60138.77
2018-07-31T09:33:23.174Z,60138.77
2018-07-31T09:35:51.437Z,60133.69
2018-07-31T09:38:20.821Z,60135.72
2018-07-31T09:40:49.145Z,60123.53
2018-07-31T09:43:17.445Z,60134.70
2018-07-31T09:45:45.695Z,60115.40
2018-07-31T09:48:14.704Z,60116.41
2018-07-31T09:50:43.944Z,60111.33
2018-07-31T09:53:13.400Z,60109.30
2018-07-31T09:55:43.189Z,60094.06
2018-07-31T09:58:11.416Z,60079.84
2018-07-31T10:00:45.075Z,60093.04
2018-07-31T10:03:13.300Z,60092.03
2018-07-31T10:05:42.677Z,60100.16
2018-07-31T10:08:11.082Z,60085.93
2018-07-31T10:10:40.187Z,60071.71
2018-07-31T10:13:08.474Z,60083.90
2018-07-31T10:15:36.718Z,60084.91
2018-07-31T10:18:05.101Z,60091.01
2018-07-31T10:20:33.375Z,60077.80
2018-07-31T10:23:02.699Z,60088.98
2018-07-31T10:25:31.117Z,60069.67
2018-07-31T10:27:59.374Z,60080.85
2018-07-31T10:30:27.643Z,60088.98
2018-07-31T10:32:55.920Z,60087.96
2018-07-31T10:35:24.798Z,60103.20
2018-07-31T10:37:53.246Z,60077.80
2018-07-31T10:40:23.287Z,60087.96
2018-07-31T10:42:52.522Z,60068.66
2018-07-31T10:45:20.762Z,60078.82
2018-07-31T10:47:49.022Z,60058.50
2018-07-31T10:50:17.282Z,60057.48
2018-07-31T10:52:45.502Z,60049.35
2018-07-31T10:55:13.715Z,60067.64
2018-07-31T10:57:42.246Z,60048.34
2018-07-31T11:00:10.724Z,60052.40
2018-07-31T11:02:40.502Z,60047.32
2018-07-31T11:05:09.619Z,60055.45
2018-07-31T11:07:38.835Z,60061.54
2018-07-31T11:10:07.707Z,60049.35
2018-07-31T11:12:36.180Z,60054.43
2018-07-31T11:15:05.959Z,60048.34
2018-07-31T11:17:34.161Z,60059.51
2018-07-31T11:20:02.354Z,60054.43
2018-07-31T11:22:30.591Z,60047.32
2018-07-31T11:24:58.766Z,60062.56
2018-07-31T11:27:26.997Z,60061.54
2018-07-31T11:29:55.175Z,60064.59
2018-07-31T11:32:23.368Z,60038.18
2018-07-31T11:34:51.549Z,60066.62
2018-07-31T11:37:19.763Z,60059.51
2018-07-31T11:39:47.975Z,60059.51
2018-07-31T11:42:16.207Z,60045.29
2018-07-31T11:44:44.412Z,60064.59
2018-07-31T11:47:12.596Z,60059.51
2018-07-31T11:49:40.839Z,60054.43
2018-07-31T11:52:09.032Z,60067.64
2018-07-31T11:54:37.235Z,60060.53
2018-07-31T11:57:05.419Z,60053.42
2018-07-31T11:59:33.619Z,60057.48
2018-07-31T12:02:01.868Z,60064.59
2018-07-31T12:04:30.032Z,60054.43
2018-07-31T12:06:58.218Z,60055.45
2018-07-31T12:09:26.427Z,60055.45
2018-07-31T12:11:54.595Z,60050.37
2018-07-31T12:14:22.778Z,60063.57
2018-07-31T12:16:50.987Z,60065.61
2018-07-31T12:19:19.175Z,60058.50
2018-07-31T12:21:47.383Z,60053.42
2018-07-31T12:24:15.623Z,60042.24
2018-07-31T12:26:43.897Z,60050.37
2018-07-31T12:29:15.992Z,60038.18
2018-07-31T12:31:44.203Z,60035.12
2018-07-31T12:34:12.685Z,60033.09
2018-07-31T12:36:40.879Z,60050.37
2018-07-31T12:39:11.171Z,60034.11
2018-07-31T12:41:39.434Z,60027.00
2018-07-31T12:44:07.677Z,60017.85
2018-07-31T12:46:36.677Z,60040.21
2018-07-31T12:49:04.908Z,60042.24
2018-07-31T12:51:33.157Z,60040.21
2018-07-31T12:54:01.591Z,60037.16
2018-07-31T12:56:29.830Z,60056.46
2018-07-31T12:58:58.111Z,60048.34
2018-07-31T13:01:26.290Z,60055.45
2018-07-31T13:03:54.502Z,60040.21
2018-07-31T13:06:22.784Z,60043.25
2018-07-31T13:08:50.973Z,60050.37
2018-07-31T13:11:19.189Z,60063.57
2018-07-31T13:13:47.422Z,60050.37
2018-07-31T13:16:16.354Z,60066.62
2018-07-31T13:18:45.864Z,60066.62
2018-07-31T13:21:15.272Z,60069.67
2018-07-31T13:23:43.522Z,60080.85
2018-07-31T13:26:13.111Z,60079.84
2018-07-31T13:28:42.471Z,60085.93
2018-07-31T13:31:10.810Z,60066.62
2018-07-31T13:33:39.095Z,60069.67
2018-07-31T13:36:07.487Z,60078.82
2018-07-31T13:38:35.714Z,60070.69
2018-07-31T13:41:04.930Z,60084.91
2018-07-31T13:43:33.574Z,60087.96
2018-07-31T13:46:04.497Z,60096.09
2018-07-31T13:48:33.285Z,60083.90
2018-07-31T13:51:01.580Z,60080.85
2018-07-31T13:53:30.715Z,60109.30
2018-07-31T13:56:00.037Z,60101.17
2018-07-31T13:58:29.247Z,60084.91
2018-07-31T14:00:57.503Z,60097.11
2018-07-31T14:03:25.702Z,60082.88
2018-07-31T14:05:56.108Z,60098.12
2018-07-31T14:08:29.153Z,60092.03
2018-07-31T14:10:57.336Z,60099.14
2018-07-31T14:13:25.566Z,60096.09
2018-07-31T14:15:53.816Z,60095.08
2018-07-31T14:18:22.088Z,60097.11
2018-07-31T14:20:50.361Z,60098.12
2018-07-31T14:23:18.792Z,60110.32
2018-07-31T14:25:47.007Z,60116.41
2018-07-31T14:28:15.274Z,60099.14
2018-07-31T14:30:43.541Z,60109.30
2018-07-31T14:33:12.635Z,60097.11
2018-07-31T14:35:41.535Z,60096.09
2018-07-31T14:38:10.685Z,60104.22
2018-07-31T14:40:38.987Z,60097.11
2018-07-31T14:43:07.242Z,60088.98
2018-07-31T14:45:35.653Z,60098.12
2018-07-31T14:48:03.779Z,60079.84
2018-07-31T14:50:32.011Z,60102.19
2018-07-31T14:53:00.207Z,60099.14
2018-07-31T14:55:28.406Z,60105.24
2018-07-31T14:57:56.664Z,60108.29
2018-07-31T15:00:24.887Z,60098.12
2018-07-31T15:02:53.112Z,60103.20
2018-07-31T15:05:21.447Z,60125.56
2018-07-31T15:07:49.811Z,60100.16
2018-07-31T15:10:18.055Z,60109.30
2018-07-31T15:12:46.316Z,60107.27
2018-07-31T15:15:14.574Z,60109.30
2018-07-31T15:17:42.759Z,60114.38
2018-07-31T15:20:10.987Z,60129.63
2018-07-31T15:22:39.282Z,60118.45
2018-07-31T15:25:07.848Z,60105.24
2018-07-31T15:27:36.099Z,60099.14
2018-07-31T15:30:05.490Z,60090.00
2018-07-31T15:32:33.771Z,60096.09
2018-07-31T15:35:02.142Z,60085.93
2018-07-31T15:37:30.370Z,60112.35
2018-07-31T15:39:58.589Z,60113.37
2018-07-31T15:42:26.822Z,60091.01
2018-07-31T15:44:55.124Z,60109.30
2018-07-31T15:47:23.369Z,60099.14
2018-07-31T15:49:51.571Z,60104.22
2018-07-31T15:52:19.799Z,60096.09
2018-07-31T15:54:48.022Z,60115.40
2018-07-31T15:57:16.402Z,60107.27
2018-07-31T15:59:44.666Z,60088.98
2018-07-31T16:02:12.858Z,60086.95
2018-07-31T16:04:41.075Z,60090.00
2018-07-31T16:07:09.583Z,60108.29
2018-07-31T16:09:37.791Z,60108.29
2018-07-31T16:12:06.234Z,60103.20
2018-07-31T16:14:34.406Z,60117.43
2018-07-31T16:17:02.575Z,60105.24
2018-07-31T16:19:30.751Z,60108.29
2018-07-31T16:21:58.915Z,60102.19
2018-07-31T16:24:27.099Z,60108.29
2018-07-31T16:26:55.272Z,60120.48
2018-07-31T16:29:25.620Z,60119.46
2018-07-31T16:31:53.795Z,60109.30
2018-07-31T16:34:21.988Z,60119.46
2018-07-31T16:36:50.176Z,60112.35
2018-07-31T16:39:18.415Z,60114.38
2018-07-31T16:41:46.591Z,60106.25
2018-07-31T16:44:14.754Z,60128.61
2018-07-31T16:46:42.921Z,60110.32
2018-07-31T16:49:11.158Z,60115.40
2018-07-31T16:51:39.356Z,60118.45
2018-07-31T16:54:07.531Z,60113.37
2018-07-31T16:56:35.807Z,60112.35
2018-07-31T16:59:03.988Z,60100.16
2018-07-31T17:01:32.411Z,60102.19
2018-07-31T17:04:00.565Z,60112.35
2018-07-31T17:06:28.711Z,60111.33
2018-07-31T17:08:58.575Z,60114.38
2018-07-31T17:11:27.098Z,60118.45
2018-07-31T17:13:55.305Z,60114.38
2018-07-31T17:16:23.475Z,60111.33
2018-07-31T17:18:51.683Z,60123.53
2018-07-31T17:21:19.871Z,60108.29
2018-07-31T17:23:48.147Z,60131.66
2018-07-31T17:26:16.334Z,60122.51
2018-07-31T17:28:44.515Z,60115.40
2018-07-31T17:31:13.238Z,60121.50
2018-07-31T17:33:42.382Z,60120.48
2018-07-31T17:36:13.407Z,60117.43
2018-07-31T17:38:41.694Z,60106.25
2018-07-31T17:41:09.922Z,60125.56
2018-07-31T17:43:38.119Z,60121.50
2018-07-31T17:46:06.469Z,60118.45
2018-07-31T17:48:34.747Z,60116.41
2018-07-31T17:51:03.595Z,60134.70
2018-07-31T17:53:31.818Z,60122.51
2018-07-31T17:56:00.092Z,60126.57
2018-07-31T17:58:28.274Z,60134.70
2018-07-31T18:00:56.510Z,60124.54
2018-07-31T18:03:24.755Z,60132.67
2018-07-31T18:05:52.939Z,60133.69
2018-07-31T18:08:21.158Z,60117.43
2018-07-31T18:10:57.591Z,60125.56
2018-07-31T18:13:27.018Z,60139.79
2018-07-31T18:15:56.512Z,60142.83
2018-07-31T18:18:24.746Z,60136.73
2018-07-31T18:20:52.944Z,60125.56
2018-07-31T18:23:21.171Z,60140.80
2018-07-31T18:25:50.986Z,60128.61
2018-07-31T18:28:20.127Z,60146.90
2018-07-31T18:30:48.427Z,60146.90
2018-07-31T18:33:16.825Z,60144.87
2018-07-31T18:35:56.427Z,60140.80
2018-07-31T18:38:24.754Z,60149.95
2018-07-31T18:40:52.930Z,60157.06
2018-07-31T18:43:21.434Z,60149.95
2018-07-31T18:45:49.794Z,60153.00
2018-07-31T18:48:18.016Z,60163.16
2018-07-31T18:50:46.264Z,60145.88
2018-07-31T18:53:14.427Z,60163.16
2018-07-31T18:55:43.361Z,60144.87
2018-07-31T18:58:12.166Z,60168.23
2018-07-31T19:00:40.368Z,60149.95
2018-07-31T19:03:08.586Z,60154.01
2018-07-31T19:05:36.768Z,60161.12
2018-07-31T19:08:06.568Z,60165.19
2018-07-31T19:10:35.554Z,60160.11
2018-07-31T19:13:03.827Z,60174.33
2018-07-31T19:15:32.595Z,60179.41
2018-07-31T19:18:01.819Z,60183.48
2018-07-31T19:20:31.091Z,60165.19
2018-07-31T19:22:59.354Z,60173.32
2018-07-31T19:25:27.579Z,60191.61
2018-07-31T19:27:56.022Z,60193.64
2018-07-31T19:30:24.186Z,60182.46
2018-07-31T19:32:52.582Z,60195.67
2018-07-31T19:35:20.883Z,60172.30
2018-07-31T19:37:50.011Z,60179.41
2018-07-31T19:40:18.362Z,60200.75
2018-07-31T19:42:48.015Z,60209.90
2018-07-31T19:45:16.499Z,60191.61
2018-07-31T19:47:44.823Z,60194.66
2018-07-31T19:50:13.509Z,60185.51
2018-07-31T19:52:43.478Z,60180.43
2018-07-31T19:55:11.819Z,60185.51
2018-07-31T19:57:40.159Z,60185.51
2018-07-31T20:00:09.973Z,60214.98
2018-07-31T20:02:38.334Z,60193.64
2018-07-31T20:05:08.706Z,60203.80
2018-07-31T20:07:37.306Z,60190.59
2018-07-31T20:10:06.575Z,60200.75
2018-07-31T20:12:34.923Z,60197.70
2018-07-31T20:15:04.615Z,60212.95
2018-07-31T20:17:33.506Z,60204.82
2018-07-31T20:20:01.788Z,60217.01
2018-07-31T20:22:30.089Z,60197.70
2018-07-31T20:24:58.346Z,60200.75
2018-07-31T20:27:27.588Z,60232.25
2018-07-31T20:29:55.782Z,60207.86
2018-07-31T20:32:23.966Z,60210.91
2018-07-31T20:34:52.146Z,60220.06
2018-07-31T20:37:20.330Z,60230.22
2018-07-31T20:39:48.515Z,60218.03
2018-07-31T20:42:16.723Z,60221.07
2018-07-31T20:44:44.926Z,60217.01
2018-07-31T20:47:13.108Z,60217.01
2018-07-31T20:49:41.371Z,60222.09
2018-07-31T20:52:09.556Z,60208.88
2018-07-31T20:54:37.742Z,60214.98
2018-07-31T20:57:06.106Z,60225.14
2018-07-31T20:59:34.310Z,60214.98
2018-07-31T21:02:02.536Z,60223.11
2018-07-31T21:04:30.733Z,60246.48
2018-07-31T21:06:58.931Z,60234.29
2018-07-31T21:09:27.107Z,60229.20
2018-07-31T21:11:55.286Z,60227.17
2018-07-31T21:14:23.507Z,60209.90
2018-07-31T21:16:51.686Z,60217.01
2018-07-31T21:19:19.966Z,60223.11
2018-07-31T21:21:48.161Z,60231.24
2018-07-31T21:24:16.334Z,60231.24
2018-07-31T21:26:44.514Z,60247.49
2018-07-31T21:29:12.759Z,60229.20
2018-07-31T21:31:40.939Z,60238.35
2018-07-31T21:34:09.122Z,60236.32
2018-07-31T21:36:37.290Z,60223.11
2018-07-31T21:39:08.678Z,60207.86
2018-07-31T21:41:36.876Z,60229.20
2018-07-31T21:44:05.096Z,60241.40
2018-07-31T21:46:33.289Z,60227.17
2018-07-31T21:49:01.458Z,60237.33
2018-07-31T21:51:29.659Z,60233.27
2018-07-31T21:53:57.831Z,60237.33
2018-07-31T21:56:26.027Z,60224.12
2018-07-31T21:58:54.210Z,60236.32
2018-07-31T22:01:22.394Z,60241.40
2018-07-31T22:03:50.563Z,60222.09
2018-07-31T22:06:18.754Z,60229.20
2018-07-31T22:08:46.956Z,60227.17
2018-07-31T22:11:15.142Z,60224.12
2018-07-31T22:13:43.331Z,60232.25
2018-07-31T22:16:11.507Z,60225.14
2018-07-31T22:18:39.691Z,60242.41
2018-07-31T22:21:07.871Z,60257.66
2018-07-31T22:23:36.056Z,60236.32
2018-07-31T22:26:04.266Z,60224.12
2018-07-31T22:28:32.507Z,60240.38
2018-07-31T22:31:00.686Z,60227.17
2018-07-31T22:33:28.922Z,60237.33
2018-07-31T22:35:57.122Z,60246.48
2018-07-31T22:38:25.306Z,60239.36
2018-07-31T22:40:53.517Z,60237.33
2018-07-31T22:43:21.690Z,60237.33
2018-07-31T22:45:49.895Z,60232.25
2018-07-31T22:48:18.087Z,60252.57
2018-07-31T22:50:46.277Z,60248.51
2018-07-31T22:53:14.502Z,60251.56
2018-07-31T22:55:42.683Z,60250.54
2018-07-31T22:58:10.891Z,60227.17
2018-07-31T23:00:39.086Z,60235.30
2018-07-31T23:03:07.283Z,60259.69
2018-07-31T23:05:35.476Z,60252.57
2018-07-31T23:08:03.658Z,60236.32
2018-07-31T23:10:31.885Z,60242.41
2018-07-31T23:13:00.070Z,60262.74
2018-07-31T23:15:28.262Z,60244.45
2018-07-31T23:17:56.446Z,60241.40
2018-07-31T23:20:24.642Z,60226.16
2018-07-31T23:22:52.902Z,60238.35
2018-07-31T23:25:21.107Z,60245.46
2018-07-31T23:27:49.286Z,60249.53
2018-07-31T23:30:17.475Z,60240.38
2018-07-31T23:32:48.590Z,60237.33
2018-07-31T23:35:16.726Z,60267.82
2018-07-31T23:37:44.954Z,60270.87
2018-07-31T23:40:13.104Z,60239.36
2018-07-31T23:42:41.302Z,60268.83
2018-07-31T23:45:09.489Z,60263.75
2018-07-31T23:47:37.686Z,60261.72
2018-07-31T23:50:05.894Z,60246.48
2018-07-31T23:52:34.068Z,60249.53
2018-07-31T23:55:02.267Z,60268.83
2018-07-31T23:57:30.455Z,60251.56
2018-07-31T23:59:58.665Z,60270.87
